<?xml version='1.0' encoding='UTF-8'?><gpx version="1.1" creator="JPX - https://github.com/jenetics/jpx" xmlns="http://www.topografix.com/GPX/1/1"><trk><trkseg><trkpt lat="46.1781173" lon="12.3347114"><ele>719.8333333333333</ele><time>2026-04-24T09:24:59.699Z</time></trkpt><trkpt lat="46.1781854" lon="12.33467"><ele>723.6666666666666</ele><time>2026-04-24T09:25:00.699Z</time></trkpt><trkpt lat="46.1782656" lon="12.3346252"><ele>727.5</ele><time>2026-04-24T09:25:01.699Z</time></trkpt><trkpt lat="46.1783539" lon="12.3345829"><ele>731.3333333333334</ele><time>2026-04-24T09:25:02.699Z</time></trkpt><trkpt lat="46.1784357" lon="12.3345493"><ele>735.1666666666667</ele><time>2026-04-24T09:25:03.699Z</time></trkpt><trkpt lat="46.1785164" lon="12.3345074"><ele>739.0</ele><time>2026-04-24T09:25:04.699Z</time></trkpt><trkpt lat="46.1785916" lon="12.3344545"><ele>739.0</ele><time>2026-04-24T09:25:05.699Z</time></trkpt><trkpt lat="46.1786592" lon="12.3343795"><ele>739.0</ele><time>2026-04-24T09:25:06.699Z</time></trkpt><trkpt lat="46.1787333" lon="12.3342941"><ele>739.0</ele><time>2026-04-24T09:25:07.699Z</time></trkpt><trkpt lat="46.1788058" lon="12.3342117"><ele>739.0</ele><time>2026-04-24T09:25:08.699Z</time></trkpt><trkpt lat="46.1788815" lon="12.3341287"><ele>739.0</ele><time>2026-04-24T09:25:09.699Z</time></trkpt><trkpt lat="46.1789518" lon="12.334051"><ele>743.3333333333334</ele><time>2026-04-24T09:25:10.699Z</time></trkpt><trkpt lat="46.1790242" lon="12.3339651"><ele>747.6666666666667</ele><time>2026-04-24T09:25:11.699Z</time></trkpt><trkpt lat="46.1790906" lon="12.3338823"><ele>752.0</ele><time>2026-04-24T09:25:12.699Z</time></trkpt><trkpt lat="46.1791492" lon="12.333789"><ele>756.3333333333334</ele><time>2026-04-24T09:25:13.699Z</time></trkpt><trkpt lat="46.1792031" lon="12.3336954"><ele>760.6666666666666</ele><time>2026-04-24T09:25:14.699Z</time></trkpt><trkpt lat="46.1792559" lon="12.333603"><ele>765.0</ele><time>2026-04-24T09:25:15.699Z</time></trkpt><trkpt lat="46.1793085" lon="12.3335062"><ele>765.0</ele><time>2026-04-24T09:25:16.699Z</time></trkpt><trkpt lat="46.1793619" lon="12.3334101"><ele>765.0</ele><time>2026-04-24T09:25:17.699Z</time></trkpt><trkpt lat="46.1794079" lon="12.333311"><ele>765.0</ele><time>2026-04-24T09:25:18.7Z</time></trkpt><trkpt lat="46.1794444" lon="12.3332165"><ele>765.0</ele><time>2026-04-24T09:25:19.699Z</time></trkpt><trkpt lat="46.1794775" lon="12.3331078"><ele>765.0</ele><time>2026-04-24T09:25:21.699Z</time></trkpt><trkpt lat="46.1794117" lon="12.3331667"><ele>765.0</ele><time>2026-04-24T09:25:52.699Z</time></trkpt><trkpt lat="46.1794267" lon="12.3333133"><ele>765.0</ele><time>2026-04-24T09:25:54.699Z</time></trkpt><trkpt lat="46.17946" lon="12.3334883"><ele>765.0</ele><time>2026-04-24T09:25:56.699Z</time></trkpt><trkpt lat="46.1794817" lon="12.3336533"><ele>765.0</ele><time>2026-04-24T09:25:58.699Z</time></trkpt><trkpt lat="46.179485" lon="12.333815"><ele>765.0</ele><time>2026-04-24T09:26:00.699Z</time></trkpt><trkpt lat="46.1794783" lon="12.3339733"><ele>767.4</ele><time>2026-04-24T09:26:02.699Z</time></trkpt><trkpt lat="46.1794867" lon="12.3341317"><ele>769.8</ele><time>2026-04-24T09:26:04.7Z</time></trkpt><trkpt lat="46.1795067" lon="12.33431"><ele>772.2</ele><time>2026-04-24T09:26:06.7Z</time></trkpt><trkpt lat="46.179515" lon="12.3344233"><ele>774.6</ele><time>2026-04-24T09:26:07.699Z</time></trkpt><trkpt lat="46.1795167" lon="12.33454"><ele>777.0</ele><time>2026-04-24T09:26:08.7Z</time></trkpt><trkpt lat="46.1795133" lon="12.3346483"><ele>779.1666666666666</ele><time>2026-04-24T09:26:09.699Z</time></trkpt><trkpt lat="46.1795083" lon="12.33476"><ele>781.3333333333333</ele><time>2026-04-24T09:26:10.699Z</time></trkpt><trkpt lat="46.17952" lon="12.334915"><ele>783.5</ele><time>2026-04-24T09:26:12.699Z</time></trkpt><trkpt lat="46.1795267" lon="12.3350067"><ele>785.6666666666666</ele><time>2026-04-24T09:26:13.699Z</time></trkpt><trkpt lat="46.1795333" lon="12.33511"><ele>787.8333333333333</ele><time>2026-04-24T09:26:14.699Z</time></trkpt><trkpt lat="46.1795283" lon="12.335275"><ele>790.0</ele><time>2026-04-24T09:26:16.699Z</time></trkpt><trkpt lat="46.179495" lon="12.3354"><ele>790.0</ele><time>2026-04-24T09:26:18.699Z</time></trkpt><trkpt lat="46.1794308" lon="12.3355206"><ele>790.0</ele><time>2026-04-24T09:26:20.699Z</time></trkpt><trkpt lat="46.1793783" lon="12.3356316"><ele>790.0</ele><time>2026-04-24T09:26:22.699Z</time></trkpt><trkpt lat="46.1793294" lon="12.335734"><ele>790.0</ele><time>2026-04-24T09:26:23.699Z</time></trkpt><trkpt lat="46.1792666" lon="12.3358756"><ele>790.0</ele><time>2026-04-24T09:26:25.812Z</time></trkpt><trkpt lat="46.1792542" lon="12.3360345"><ele>793.2</ele><time>2026-04-24T09:26:27.74Z</time></trkpt><trkpt lat="46.1792678" lon="12.3361877"><ele>796.4</ele><time>2026-04-24T09:26:29.714Z</time></trkpt><trkpt lat="46.1792515" lon="12.3363425"><ele>799.5999999999999</ele><time>2026-04-24T09:26:31.743Z</time></trkpt><trkpt lat="46.1792167" lon="12.3364961"><ele>802.8</ele><time>2026-04-24T09:26:33.745Z</time></trkpt><trkpt lat="46.1792327" lon="12.3366238"><ele>806.0</ele><time>2026-04-24T09:26:35.746Z</time></trkpt><trkpt lat="46.1793187" lon="12.3366626"><ele>809.0</ele><time>2026-04-24T09:26:38.749Z</time></trkpt><trkpt lat="46.1793897" lon="12.3366876"><ele>812.0</ele><time>2026-04-24T09:26:40.793Z</time></trkpt><trkpt lat="46.1794983" lon="12.3367083"><ele>815.0</ele><time>2026-04-24T09:26:41.699Z</time></trkpt><trkpt lat="46.1795667" lon="12.33672"><ele>818.0</ele><time>2026-04-24T09:26:42.699Z</time></trkpt><trkpt lat="46.1796767" lon="12.3367417"><ele>821.0</ele><time>2026-04-24T09:26:44.7Z</time></trkpt><trkpt lat="46.1797817" lon="12.3367267"><ele>823.4</ele><time>2026-04-24T09:26:46.699Z</time></trkpt><trkpt lat="46.1798717" lon="12.3366383"><ele>825.8</ele><time>2026-04-24T09:26:48.699Z</time></trkpt><trkpt lat="46.179955" lon="12.336545"><ele>828.1999999999999</ele><time>2026-04-24T09:26:50.699Z</time></trkpt><trkpt lat="46.1800383" lon="12.3364417"><ele>830.5999999999999</ele><time>2026-04-24T09:26:52.699Z</time></trkpt><trkpt lat="46.1800833" lon="12.336345"><ele>833.0</ele><time>2026-04-24T09:26:54.7Z</time></trkpt><trkpt lat="46.1801433" lon="12.3363833"><ele>835.2</ele><time>2026-04-24T09:26:58.699Z</time></trkpt><trkpt lat="46.1801717" lon="12.33651"><ele>837.4</ele><time>2026-04-24T09:27:01.699Z</time></trkpt><trkpt lat="46.180205" lon="12.336665"><ele>839.6</ele><time>2026-04-24T09:27:03.699Z</time></trkpt><trkpt lat="46.18021" lon="12.33676"><ele>841.8000000000001</ele><time>2026-04-24T09:27:04.699Z</time></trkpt><trkpt lat="46.1802428" lon="12.3369121"><ele>844.0</ele><time>2026-04-24T09:27:06.699Z</time></trkpt><trkpt lat="46.1802616" lon="12.3370495"><ele>843.9999999999999</ele><time>2026-04-24T09:27:08.699Z</time></trkpt><trkpt lat="46.1802412" lon="12.337195"><ele>844.0</ele><time>2026-04-24T09:27:10.699Z</time></trkpt><trkpt lat="46.1802043" lon="12.3372972"><ele>844.0</ele><time>2026-04-24T09:27:12.699Z</time></trkpt><trkpt lat="46.1801817" lon="12.3374117"><ele>844.0</ele><time>2026-04-24T09:30:30.699Z</time></trkpt><trkpt lat="46.1801333" lon="12.3375067"><ele>843.9999999999999</ele><time>2026-04-24T09:30:32.698Z</time></trkpt><trkpt lat="46.1801067" lon="12.3376333"><ele>844.0</ele><time>2026-04-24T09:30:35.699Z</time></trkpt><trkpt lat="46.1800833" lon="12.3377783"><ele>843.4000000000001</ele><time>2026-04-24T09:31:44.698Z</time></trkpt><trkpt lat="46.179985" lon="12.3378417"><ele>842.8</ele><time>2026-04-24T09:31:47.698Z</time></trkpt><trkpt lat="46.179885" lon="12.3378617"><ele>842.2</ele><time>2026-04-24T09:31:49.698Z</time></trkpt><trkpt lat="46.17979" lon="12.3379183"><ele>841.5999999999999</ele><time>2026-04-24T09:31:51.698Z</time></trkpt><trkpt lat="46.1797217" lon="12.337995"><ele>841.0</ele><time>2026-04-24T09:31:53.698Z</time></trkpt><trkpt lat="46.17967" lon="12.3380933"><ele>840.9999999999999</ele><time>2026-04-24T09:31:55.699Z</time></trkpt><trkpt lat="46.1797169" lon="12.3380125"><ele>841.0</ele><time>2026-04-24T09:31:56.8Z</time></trkpt><trkpt lat="46.1796669" lon="12.3381404"><ele>841.0</ele><time>2026-04-24T09:31:57.701Z</time></trkpt><trkpt lat="46.1796476" lon="12.3382361"><ele>841.0</ele><time>2026-04-24T09:31:59.702Z</time></trkpt><trkpt lat="46.1796502" lon="12.3383554"><ele>840.9999999999999</ele><time>2026-04-24T09:32:01.792Z</time></trkpt><trkpt lat="46.1796423" lon="12.3384535"><ele>841.0</ele><time>2026-04-24T09:32:03.752Z</time></trkpt><trkpt lat="46.1795987" lon="12.3385358"><ele>844.8</ele><time>2026-04-24T09:32:05.707Z</time></trkpt><trkpt lat="46.1795699" lon="12.3386235"><ele>848.5999999999999</ele><time>2026-04-24T09:32:08.709Z</time></trkpt><trkpt lat="46.1794967" lon="12.338725"><ele>852.4</ele><time>2026-04-24T09:32:33.698Z</time></trkpt><trkpt lat="46.1794117" lon="12.33885"><ele>856.2</ele><time>2026-04-24T09:32:35.698Z</time></trkpt><trkpt lat="46.17935" lon="12.3390033"><ele>860.0</ele><time>2026-04-24T09:32:37.698Z</time></trkpt><trkpt lat="46.179295" lon="12.33916"><ele>863.0</ele><time>2026-04-24T09:32:39.698Z</time></trkpt><trkpt lat="46.1792317" lon="12.33928"><ele>866.0</ele><time>2026-04-24T09:32:41.698Z</time></trkpt><trkpt lat="46.1791867" lon="12.3393617"><ele>869.0</ele><time>2026-04-24T09:32:43.698Z</time></trkpt><trkpt lat="46.1791833" lon="12.3395267"><ele>872.0</ele><time>2026-04-24T09:32:45.698Z</time></trkpt><trkpt lat="46.179185" lon="12.3396533"><ele>875.0</ele><time>2026-04-24T09:32:46.698Z</time></trkpt><trkpt lat="46.1791733" lon="12.33979"><ele>878.0</ele><time>2026-04-24T09:32:47.698Z</time></trkpt><trkpt lat="46.1791467" lon="12.3399267"><ele>881.0</ele><time>2026-04-24T09:32:48.698Z</time></trkpt><trkpt lat="46.1790967" lon="12.34005"><ele>884.0</ele><time>2026-04-24T09:32:49.698Z</time></trkpt><trkpt lat="46.1790217" lon="12.3401717"><ele>887.0</ele><time>2026-04-24T09:32:50.698Z</time></trkpt><trkpt lat="46.17893" lon="12.3403133"><ele>890.0</ele><time>2026-04-24T09:32:51.698Z</time></trkpt><trkpt lat="46.1788467" lon="12.34043"><ele>887.3333333333334</ele><time>2026-04-24T09:32:52.698Z</time></trkpt><trkpt lat="46.1787817" lon="12.34054"><ele>884.6666666666667</ele><time>2026-04-24T09:32:53.698Z</time></trkpt><trkpt lat="46.1787167" lon="12.3406517"><ele>882.0</ele><time>2026-04-24T09:32:54.698Z</time></trkpt><trkpt lat="46.1786683" lon="12.3407567"><ele>879.3333333333333</ele><time>2026-04-24T09:32:55.698Z</time></trkpt><trkpt lat="46.1786267" lon="12.340855"><ele>876.6666666666666</ele><time>2026-04-24T09:32:56.698Z</time></trkpt><trkpt lat="46.1785817" lon="12.3409517"><ele>874.0</ele><time>2026-04-24T09:32:57.698Z</time></trkpt><trkpt lat="46.17855" lon="12.3410583"><ele>874.0</ele><time>2026-04-24T09:32:58.699Z</time></trkpt><trkpt lat="46.1785183" lon="12.3411817"><ele>874.0000000000001</ele><time>2026-04-24T09:32:59.698Z</time></trkpt><trkpt lat="46.1784717" lon="12.34129"><ele>874.0000000000001</ele><time>2026-04-24T09:33:00.698Z</time></trkpt><trkpt lat="46.178405" lon="12.341395"><ele>874.0</ele><time>2026-04-24T09:33:01.698Z</time></trkpt><trkpt lat="46.1783117" lon="12.3414883"><ele>874.0</ele><time>2026-04-24T09:33:02.698Z</time></trkpt><trkpt lat="46.1782333" lon="12.3415617"><ele>873.8333333333333</ele><time>2026-04-24T09:33:03.698Z</time></trkpt><trkpt lat="46.178165" lon="12.3416233"><ele>873.6666666666666</ele><time>2026-04-24T09:33:04.698Z</time></trkpt><trkpt lat="46.1781117" lon="12.341695"><ele>873.5</ele><time>2026-04-24T09:33:05.699Z</time></trkpt><trkpt lat="46.1780583" lon="12.3417817"><ele>873.3333333333333</ele><time>2026-04-24T09:33:06.698Z</time></trkpt><trkpt lat="46.1780117" lon="12.3418683"><ele>873.1666666666666</ele><time>2026-04-24T09:33:07.698Z</time></trkpt><trkpt lat="46.1779717" lon="12.3419517"><ele>873.0</ele><time>2026-04-24T09:33:08.699Z</time></trkpt><trkpt lat="46.1778767" lon="12.342055"><ele>873.0</ele><time>2026-04-24T09:33:10.698Z</time></trkpt><trkpt lat="46.1777567" lon="12.3420167"><ele>873.0</ele><time>2026-04-24T09:33:12.698Z</time></trkpt><trkpt lat="46.1776967" lon="12.3419483"><ele>873.0</ele><time>2026-04-24T09:33:13.698Z</time></trkpt><trkpt lat="46.1776417" lon="12.3418733"><ele>873.0</ele><time>2026-04-24T09:33:14.698Z</time></trkpt><trkpt lat="46.1775583" lon="12.3418067"><ele>873.0</ele><time>2026-04-24T09:33:16.698Z</time></trkpt><trkpt lat="46.1774667" lon="12.3418783"><ele>873.0</ele><time>2026-04-24T09:33:18.698Z</time></trkpt><trkpt lat="46.17741" lon="12.3419417"><ele>873.0</ele><time>2026-04-24T09:33:19.698Z</time></trkpt><trkpt lat="46.1773567" lon="12.34201"><ele>873.0</ele><time>2026-04-24T09:33:20.698Z</time></trkpt><trkpt lat="46.1772917" lon="12.3420667"><ele>873.0</ele><time>2026-04-24T09:33:21.699Z</time></trkpt><trkpt lat="46.1772183" lon="12.3421017"><ele>873.0</ele><time>2026-04-24T09:33:22.698Z</time></trkpt><trkpt lat="46.1771383" lon="12.342115"><ele>873.0</ele><time>2026-04-24T09:33:23.698Z</time></trkpt><trkpt lat="46.1770617" lon="12.3421383"><ele>873.8</ele><time>2026-04-24T09:33:24.698Z</time></trkpt><trkpt lat="46.1769783" lon="12.342195"><ele>874.5999999999999</ele><time>2026-04-24T09:33:26.698Z</time></trkpt><trkpt lat="46.1768933" lon="12.3422967"><ele>875.4000000000001</ele><time>2026-04-24T09:33:28.698Z</time></trkpt><trkpt lat="46.1768667" lon="12.34247"><ele>876.2</ele><time>2026-04-24T09:33:30.698Z</time></trkpt><trkpt lat="46.1768667" lon="12.3425833"><ele>877.0</ele><time>2026-04-24T09:33:31.698Z</time></trkpt><trkpt lat="46.1768817" lon="12.3427667"><ele>876.9999999999999</ele><time>2026-04-24T09:33:33.698Z</time></trkpt><trkpt lat="46.1769183" lon="12.3428583"><ele>877.0</ele><time>2026-04-24T09:33:34.699Z</time></trkpt><trkpt lat="46.1769633" lon="12.3429383"><ele>877.0</ele><time>2026-04-24T09:33:35.698Z</time></trkpt><trkpt lat="46.1770083" lon="12.34302"><ele>877.0</ele><time>2026-04-24T09:33:36.699Z</time></trkpt><trkpt lat="46.177055" lon="12.34313"><ele>876.9999999999999</ele><time>2026-04-24T09:33:37.698Z</time></trkpt><trkpt lat="46.177095" lon="12.3432533"><ele>877.0</ele><time>2026-04-24T09:33:38.699Z</time></trkpt><trkpt lat="46.17713" lon="12.343345"><ele>876.6</ele><time>2026-04-24T09:33:39.698Z</time></trkpt><trkpt lat="46.1771633" lon="12.3434467"><ele>876.2</ele><time>2026-04-24T09:33:40.698Z</time></trkpt><trkpt lat="46.17719" lon="12.3435783"><ele>875.8</ele><time>2026-04-24T09:33:41.699Z</time></trkpt><trkpt lat="46.1772133" lon="12.34372"><ele>875.4</ele><time>2026-04-24T09:33:42.698Z</time></trkpt><trkpt lat="46.17722" lon="12.34386"><ele>875.0</ele><time>2026-04-24T09:33:43.698Z</time></trkpt><trkpt lat="46.1772133" lon="12.3440333"><ele>875.0</ele><time>2026-04-24T09:33:44.698Z</time></trkpt><trkpt lat="46.177205" lon="12.3442117"><ele>875.0</ele><time>2026-04-24T09:33:45.698Z</time></trkpt><trkpt lat="46.1772" lon="12.34436"><ele>875.0</ele><time>2026-04-24T09:33:46.698Z</time></trkpt><trkpt lat="46.1771983" lon="12.3444983"><ele>875.0</ele><time>2026-04-24T09:33:47.698Z</time></trkpt><trkpt lat="46.1771933" lon="12.34465"><ele>875.0</ele><time>2026-04-24T09:33:48.698Z</time></trkpt><trkpt lat="46.177205" lon="12.34482"><ele>875.0</ele><time>2026-04-24T09:33:49.698Z</time></trkpt><trkpt lat="46.177215" lon="12.3449783"><ele>875.0</ele><time>2026-04-24T09:33:50.698Z</time></trkpt><trkpt lat="46.1772217" lon="12.3451167"><ele>875.0</ele><time>2026-04-24T09:33:51.698Z</time></trkpt><trkpt lat="46.1772283" lon="12.345235"><ele>875.0</ele><time>2026-04-24T09:33:52.698Z</time></trkpt><trkpt lat="46.1772283" lon="12.3453633"><ele>875.0</ele><time>2026-04-24T09:33:53.698Z</time></trkpt><trkpt lat="46.177195" lon="12.34553"><ele>877.8</ele><time>2026-04-24T09:33:55.698Z</time></trkpt><trkpt lat="46.1771317" lon="12.3456333"><ele>880.6</ele><time>2026-04-24T09:33:56.698Z</time></trkpt><trkpt lat="46.1770633" lon="12.3457083"><ele>883.4000000000001</ele><time>2026-04-24T09:33:57.698Z</time></trkpt><trkpt lat="46.1770033" lon="12.345775"><ele>886.2</ele><time>2026-04-24T09:33:58.698Z</time></trkpt><trkpt lat="46.1769133" lon="12.345895"><ele>889.0</ele><time>2026-04-24T09:34:00.698Z</time></trkpt><trkpt lat="46.176855" lon="12.3460333"><ele>889.0</ele><time>2026-04-24T09:34:02.698Z</time></trkpt><trkpt lat="46.1768473" lon="12.3461896"><ele>889.0000000000001</ele><time>2026-04-24T09:34:04.699Z</time></trkpt><trkpt lat="46.1769145" lon="12.346353"><ele>889.0000000000001</ele><time>2026-04-24T09:34:06.699Z</time></trkpt><trkpt lat="46.1769685" lon="12.3464426"><ele>889.0</ele><time>2026-04-24T09:34:07.698Z</time></trkpt><trkpt lat="46.1770183" lon="12.3465387"><ele>889.0</ele><time>2026-04-24T09:34:08.699Z</time></trkpt><trkpt lat="46.1770531" lon="12.3466347"><ele>888.4000000000001</ele><time>2026-04-24T09:34:09.698Z</time></trkpt><trkpt lat="46.1770705" lon="12.346803"><ele>887.8000000000001</ele><time>2026-04-24T09:34:11.698Z</time></trkpt><trkpt lat="46.1770389" lon="12.3469631"><ele>887.1999999999999</ele><time>2026-04-24T09:34:13.698Z</time></trkpt><trkpt lat="46.1770454" lon="12.3470958"><ele>886.5999999999999</ele><time>2026-04-24T09:34:15.698Z</time></trkpt><trkpt lat="46.1770932" lon="12.3472512"><ele>886.0</ele><time>2026-04-24T09:34:17.699Z</time></trkpt><trkpt lat="46.1771135" lon="12.3473564"><ele>885.9999999999999</ele><time>2026-04-24T09:34:18.698Z</time></trkpt><trkpt lat="46.1771261" lon="12.3474565"><ele>886.0</ele><time>2026-04-24T09:34:19.699Z</time></trkpt><trkpt lat="46.1771261" lon="12.34756"><ele>886.0</ele><time>2026-04-24T09:34:20.698Z</time></trkpt><trkpt lat="46.1771227" lon="12.3476663"><ele>886.0</ele><time>2026-04-24T09:34:21.698Z</time></trkpt><trkpt lat="46.177118" lon="12.34777"><ele>885.9999999999999</ele><time>2026-04-24T09:34:22.698Z</time></trkpt><trkpt lat="46.1771165" lon="12.3478693"><ele>886.0</ele><time>2026-04-24T09:34:23.698Z</time></trkpt><trkpt lat="46.1771408" lon="12.3480082"><ele>885.8</ele><time>2026-04-24T09:34:25.698Z</time></trkpt><trkpt lat="46.1771495" lon="12.3482204"><ele>885.5999999999999</ele><time>2026-04-24T09:34:27.698Z</time></trkpt><trkpt lat="46.1771372" lon="12.3483402"><ele>885.4</ele><time>2026-04-24T09:34:28.698Z</time></trkpt><trkpt lat="46.1771054" lon="12.3484554"><ele>885.2</ele><time>2026-04-24T09:34:29.698Z</time></trkpt><trkpt lat="46.1770518" lon="12.3485919"><ele>885.0</ele><time>2026-04-24T09:34:30.698Z</time></trkpt><trkpt lat="46.177013" lon="12.3486919"><ele>885.0</ele><time>2026-04-24T09:34:31.698Z</time></trkpt><trkpt lat="46.1769564" lon="12.348792"><ele>885.0</ele><time>2026-04-24T09:34:32.698Z</time></trkpt><trkpt lat="46.1768867" lon="12.3488883"><ele>885.0</ele><time>2026-04-24T09:34:33.699Z</time></trkpt><trkpt lat="46.17683" lon="12.348945"><ele>885.0</ele><time>2026-04-24T09:34:34.698Z</time></trkpt><trkpt lat="46.1767133" lon="12.348965"><ele>885.0</ele><time>2026-04-24T09:34:36.699Z</time></trkpt><trkpt lat="46.17662" lon="12.3489783"><ele>883.8333333333334</ele><time>2026-04-24T09:34:38.698Z</time></trkpt><trkpt lat="46.1765617" lon="12.3490233"><ele>882.6666666666667</ele><time>2026-04-24T09:34:39.698Z</time></trkpt><trkpt lat="46.17649" lon="12.3490667"><ele>881.5</ele><time>2026-04-24T09:34:40.698Z</time></trkpt><trkpt lat="46.1764033" lon="12.3491"><ele>880.3333333333334</ele><time>2026-04-24T09:34:41.698Z</time></trkpt><trkpt lat="46.176325" lon="12.3491433"><ele>879.1666666666667</ele><time>2026-04-24T09:34:42.698Z</time></trkpt><trkpt lat="46.1762617" lon="12.349175"><ele>878.0</ele><time>2026-04-24T09:34:43.698Z</time></trkpt><trkpt lat="46.1762133" lon="12.349255"><ele>878.0</ele><time>2026-04-24T09:34:45.698Z</time></trkpt><trkpt lat="46.1761883" lon="12.349375"><ele>878.0</ele><time>2026-04-24T09:34:47.698Z</time></trkpt><trkpt lat="46.17617" lon="12.3495333"><ele>878.0</ele><time>2026-04-24T09:34:49.698Z</time></trkpt><trkpt lat="46.17611" lon="12.3496767"><ele>878.0</ele><time>2026-04-24T09:34:51.698Z</time></trkpt><trkpt lat="46.17604" lon="12.3497483"><ele>878.0</ele><time>2026-04-24T09:34:52.698Z</time></trkpt><trkpt lat="46.1759383" lon="12.3498133"><ele>875.8</ele><time>2026-04-24T09:34:53.698Z</time></trkpt><trkpt lat="46.1758317" lon="12.3498883"><ele>873.5999999999999</ele><time>2026-04-24T09:34:54.698Z</time></trkpt><trkpt lat="46.1757333" lon="12.34996"><ele>871.4000000000001</ele><time>2026-04-24T09:34:55.698Z</time></trkpt><trkpt lat="46.175645" lon="12.3500033"><ele>869.2</ele><time>2026-04-24T09:34:56.698Z</time></trkpt><trkpt lat="46.1755783" lon="12.350045"><ele>867.0</ele><time>2026-04-24T09:34:57.698Z</time></trkpt><trkpt lat="46.1755183" lon="12.3500883"><ele>867.0</ele><time>2026-04-24T09:34:58.698Z</time></trkpt><trkpt lat="46.17547" lon="12.3501467"><ele>867.0</ele><time>2026-04-24T09:34:59.698Z</time></trkpt><trkpt lat="46.1754317" lon="12.3502717"><ele>867.0</ele><time>2026-04-24T09:35:01.698Z</time></trkpt><trkpt lat="46.17543" lon="12.35038"><ele>867.0</ele><time>2026-04-24T09:35:03.698Z</time></trkpt><trkpt lat="46.17548" lon="12.3505083"><ele>867.0</ele><time>2026-04-24T09:35:05.698Z</time></trkpt><trkpt lat="46.1755083" lon="12.350595"><ele>867.0</ele><time>2026-04-24T09:35:06.698Z</time></trkpt><trkpt lat="46.17554" lon="12.3506783"><ele>868.6</ele><time>2026-04-24T09:35:07.698Z</time></trkpt><trkpt lat="46.17557" lon="12.3507633"><ele>870.2</ele><time>2026-04-24T09:35:08.698Z</time></trkpt><trkpt lat="46.1756133" lon="12.3509017"><ele>871.8</ele><time>2026-04-24T09:35:10.698Z</time></trkpt><trkpt lat="46.175615" lon="12.3510183"><ele>873.4</ele><time>2026-04-24T09:35:12.698Z</time></trkpt><trkpt lat="46.1755667" lon="12.3511917"><ele>875.0</ele><time>2026-04-24T09:35:14.698Z</time></trkpt><trkpt lat="46.1755233" lon="12.3512917"><ele>874.4</ele><time>2026-04-24T09:35:15.698Z</time></trkpt><trkpt lat="46.1754883" lon="12.3513817"><ele>873.8</ele><time>2026-04-24T09:35:16.698Z</time></trkpt><trkpt lat="46.1754683" lon="12.351475"><ele>873.2</ele><time>2026-04-24T09:35:17.698Z</time></trkpt><trkpt lat="46.1754617" lon="12.351595"><ele>872.6</ele><time>2026-04-24T09:35:18.698Z</time></trkpt><trkpt lat="46.1754467" lon="12.3517783"><ele>872.0</ele><time>2026-04-24T09:35:19.698Z</time></trkpt><trkpt lat="46.1754267" lon="12.3519967"><ele>872.0</ele><time>2026-04-24T09:35:20.698Z</time></trkpt><trkpt lat="46.17541" lon="12.352185"><ele>872.0</ele><time>2026-04-24T09:35:21.699Z</time></trkpt><trkpt lat="46.1753867" lon="12.35233"><ele>872.0</ele><time>2026-04-24T09:35:22.698Z</time></trkpt><trkpt lat="46.175345" lon="12.3524517"><ele>872.0</ele><time>2026-04-24T09:35:23.698Z</time></trkpt><trkpt lat="46.1753017" lon="12.3525367"><ele>872.0</ele><time>2026-04-24T09:35:24.698Z</time></trkpt><trkpt lat="46.17524" lon="12.35258"><ele>870.2</ele><time>2026-04-24T09:35:25.698Z</time></trkpt><trkpt lat="46.1751517" lon="12.3526267"><ele>868.4000000000001</ele><time>2026-04-24T09:35:26.698Z</time></trkpt><trkpt lat="46.1750783" lon="12.352675"><ele>866.5999999999999</ele><time>2026-04-24T09:35:27.698Z</time></trkpt><trkpt lat="46.1750083" lon="12.352725"><ele>864.8</ele><time>2026-04-24T09:35:29.699Z</time></trkpt><trkpt lat="46.174915" lon="12.352765"><ele>863.0</ele><time>2026-04-24T09:36:38.698Z</time></trkpt><trkpt lat="46.1748233" lon="12.3528867"><ele>863.0000000000001</ele><time>2026-04-24T09:36:40.699Z</time></trkpt><trkpt lat="46.1747833" lon="12.3529717"><ele>863.0</ele><time>2026-04-24T09:36:41.698Z</time></trkpt><trkpt lat="46.174755" lon="12.353065"><ele>863.0</ele><time>2026-04-24T09:36:42.699Z</time></trkpt><trkpt lat="46.1746833" lon="12.3532067"><ele>863.0</ele><time>2026-04-24T09:36:44.698Z</time></trkpt><trkpt lat="46.1746133" lon="12.3532617"><ele>863.0000000000001</ele><time>2026-04-24T09:36:45.698Z</time></trkpt><trkpt lat="46.1745383" lon="12.3533"><ele>863.0</ele><time>2026-04-24T09:36:46.698Z</time></trkpt><trkpt lat="46.1744683" lon="12.3533417"><ele>867.25</ele><time>2026-04-24T09:36:47.698Z</time></trkpt><trkpt lat="46.1744033" lon="12.3534533"><ele>871.5</ele><time>2026-04-24T09:36:49.698Z</time></trkpt><trkpt lat="46.17437" lon="12.3536533"><ele>875.75</ele><time>2026-04-24T09:36:51.698Z</time></trkpt><trkpt lat="46.1743517" lon="12.3538467"><ele>880.0</ele><time>2026-04-24T09:36:52.698Z</time></trkpt><trkpt lat="46.1743433" lon="12.3540467"><ele>880.0</ele><time>2026-04-24T09:36:53.698Z</time></trkpt><trkpt lat="46.174345" lon="12.3542267"><ele>880.0</ele><time>2026-04-24T09:36:54.698Z</time></trkpt><trkpt lat="46.1743367" lon="12.3543967"><ele>880.0</ele><time>2026-04-24T09:36:55.698Z</time></trkpt><trkpt lat="46.1743367" lon="12.3545567"><ele>880.0</ele><time>2026-04-24T09:36:56.697Z</time></trkpt><trkpt lat="46.174325" lon="12.3547183"><ele>879.0</ele><time>2026-04-24T09:36:57.698Z</time></trkpt><trkpt lat="46.1743117" lon="12.35489"><ele>878.0</ele><time>2026-04-24T09:36:58.698Z</time></trkpt><trkpt lat="46.1742967" lon="12.3550467"><ele>877.0</ele><time>2026-04-24T09:36:59.697Z</time></trkpt><trkpt lat="46.17428" lon="12.3551767"><ele>876.0</ele><time>2026-04-24T09:37:00.697Z</time></trkpt><trkpt lat="46.1742683" lon="12.3552917"><ele>875.0</ele><time>2026-04-24T09:37:01.697Z</time></trkpt><trkpt lat="46.17426" lon="12.3553867"><ele>875.2</ele><time>2026-04-24T09:37:02.697Z</time></trkpt><trkpt lat="46.1742517" lon="12.355545"><ele>875.4</ele><time>2026-04-24T09:37:04.697Z</time></trkpt><trkpt lat="46.1742517" lon="12.35565"><ele>875.5999999999999</ele><time>2026-04-24T09:37:06.697Z</time></trkpt><trkpt lat="46.1742477" lon="12.3557422"><ele>875.8</ele><time>2026-04-24T09:37:08.697Z</time></trkpt><trkpt lat="46.1742265" lon="12.3558324"><ele>876.0</ele><time>2026-04-24T09:37:11.741Z</time></trkpt><trkpt lat="46.1741776" lon="12.3561109"><ele>876.0</ele><time>2026-04-24T09:37:59.697Z</time></trkpt><trkpt lat="46.1741616" lon="12.3562545"><ele>875.9999999999999</ele><time>2026-04-24T09:38:00.697Z</time></trkpt><trkpt lat="46.1741529" lon="12.3563922"><ele>875.9999999999999</ele><time>2026-04-24T09:38:01.697Z</time></trkpt><trkpt lat="46.1741545" lon="12.3565461"><ele>876.0</ele><time>2026-04-24T09:38:02.697Z</time></trkpt><trkpt lat="46.1741614" lon="12.3567094"><ele>876.0</ele><time>2026-04-24T09:38:03.697Z</time></trkpt><trkpt lat="46.1741669" lon="12.3568736"><ele>875.5999999999999</ele><time>2026-04-24T09:38:04.697Z</time></trkpt><trkpt lat="46.1741725" lon="12.3570456"><ele>875.1999999999999</ele><time>2026-04-24T09:38:05.697Z</time></trkpt><trkpt lat="46.1741777" lon="12.3572129"><ele>874.8000000000001</ele><time>2026-04-24T09:38:06.697Z</time></trkpt><trkpt lat="46.1741828" lon="12.3573636"><ele>874.4000000000001</ele><time>2026-04-24T09:38:07.697Z</time></trkpt><trkpt lat="46.1741868" lon="12.3574982"><ele>874.0</ele><time>2026-04-24T09:38:08.697Z</time></trkpt><trkpt lat="46.1742018" lon="12.3576217"><ele>873.2</ele><time>2026-04-24T09:38:09.698Z</time></trkpt><trkpt lat="46.174229" lon="12.3577429"><ele>872.4000000000001</ele><time>2026-04-24T09:38:10.697Z</time></trkpt><trkpt lat="46.1742557" lon="12.3578634"><ele>871.6</ele><time>2026-04-24T09:38:11.697Z</time></trkpt><trkpt lat="46.1742827" lon="12.3579802"><ele>870.8</ele><time>2026-04-24T09:38:12.697Z</time></trkpt><trkpt lat="46.1743094" lon="12.3580834"><ele>870.0</ele><time>2026-04-24T09:38:13.697Z</time></trkpt><trkpt lat="46.1743714" lon="12.3582233"><ele>869.8333333333334</ele><time>2026-04-24T09:38:15.698Z</time></trkpt><trkpt lat="46.1744328" lon="12.3583941"><ele>869.6666666666667</ele><time>2026-04-24T09:38:17.697Z</time></trkpt><trkpt lat="46.1744508" lon="12.3584988"><ele>869.5</ele><time>2026-04-24T09:38:18.697Z</time></trkpt><trkpt lat="46.1744612" lon="12.3586079"><ele>869.3333333333334</ele><time>2026-04-24T09:38:19.697Z</time></trkpt><trkpt lat="46.1744626" lon="12.3587224"><ele>869.1666666666667</ele><time>2026-04-24T09:38:20.697Z</time></trkpt><trkpt lat="46.1744655" lon="12.3588354"><ele>869.0</ele><time>2026-04-24T09:38:21.697Z</time></trkpt><trkpt lat="46.1744757" lon="12.3589485"><ele>868.1666666666667</ele><time>2026-04-24T09:38:22.698Z</time></trkpt><trkpt lat="46.1744822" lon="12.3590537"><ele>867.3333333333334</ele><time>2026-04-24T09:38:23.697Z</time></trkpt><trkpt lat="46.1745508" lon="12.3591819"><ele>866.5</ele><time>2026-04-24T09:38:25.698Z</time></trkpt><trkpt lat="46.1746179" lon="12.3592695"><ele>865.6666666666667</ele><time>2026-04-24T09:38:27.697Z</time></trkpt><trkpt lat="46.1746617" lon="12.35937"><ele>864.8333333333334</ele><time>2026-04-24T09:38:30.697Z</time></trkpt><trkpt lat="46.1746283" lon="12.359465"><ele>864.0</ele><time>2026-04-24T09:38:32.697Z</time></trkpt><trkpt lat="46.1745667" lon="12.3595733"><ele>862.2</ele><time>2026-04-24T09:38:34.697Z</time></trkpt><trkpt lat="46.17453" lon="12.359725"><ele>860.4000000000001</ele><time>2026-04-24T09:38:36.697Z</time></trkpt><trkpt lat="46.1745367" lon="12.3598967"><ele>858.6</ele><time>2026-04-24T09:38:38.697Z</time></trkpt><trkpt lat="46.1745633" lon="12.3600183"><ele>856.8</ele><time>2026-04-24T09:38:40.697Z</time></trkpt><trkpt lat="46.174605" lon="12.3601533"><ele>855.0</ele><time>2026-04-24T09:38:42.697Z</time></trkpt><trkpt lat="46.1746383" lon="12.3602317"><ele>855.0</ele><time>2026-04-24T09:38:43.697Z</time></trkpt><trkpt lat="46.174705" lon="12.3603517"><ele>855.0</ele><time>2026-04-24T09:38:45.697Z</time></trkpt><trkpt lat="46.17475" lon="12.3604567"><ele>855.0</ele><time>2026-04-24T09:38:47.697Z</time></trkpt><trkpt lat="46.1748533" lon="12.3603583"><ele>855.0</ele><time>2026-04-24T09:39:16.697Z</time></trkpt><trkpt lat="46.1749167" lon="12.3603"><ele>855.0</ele><time>2026-04-24T09:39:17.697Z</time></trkpt><trkpt lat="46.1749817" lon="12.36024"><ele>858.4</ele><time>2026-04-24T09:39:18.697Z</time></trkpt><trkpt lat="46.1750383" lon="12.3601883"><ele>861.8</ele><time>2026-04-24T09:39:19.697Z</time></trkpt><trkpt lat="46.1751017" lon="12.360115"><ele>865.2</ele><time>2026-04-24T09:39:21.697Z</time></trkpt><trkpt lat="46.1751583" lon="12.35998"><ele>868.6</ele><time>2026-04-24T09:39:23.697Z</time></trkpt><trkpt lat="46.1751833" lon="12.359865"><ele>872.0</ele><time>2026-04-24T09:39:24.697Z</time></trkpt><trkpt lat="46.1752133" lon="12.3597133"><ele>874.2</ele><time>2026-04-24T09:39:25.697Z</time></trkpt><trkpt lat="46.17524" lon="12.3595617"><ele>876.4000000000001</ele><time>2026-04-24T09:39:26.697Z</time></trkpt><trkpt lat="46.1752683" lon="12.3594317"><ele>878.5999999999999</ele><time>2026-04-24T09:39:27.697Z</time></trkpt><trkpt lat="46.1753117" lon="12.3593267"><ele>880.8</ele><time>2026-04-24T09:39:28.697Z</time></trkpt><trkpt lat="46.1753717" lon="12.3592417"><ele>883.0</ele><time>2026-04-24T09:39:29.697Z</time></trkpt><trkpt lat="46.1754533" lon="12.359195"><ele>883.0</ele><time>2026-04-24T09:39:30.698Z</time></trkpt><trkpt lat="46.1755433" lon="12.3591833"><ele>883.0</ele><time>2026-04-24T09:39:31.697Z</time></trkpt><trkpt lat="46.1756367" lon="12.35921"><ele>883.0</ele><time>2026-04-24T09:39:32.697Z</time></trkpt><trkpt lat="46.1757317" lon="12.3592483"><ele>883.0</ele><time>2026-04-24T09:39:33.697Z</time></trkpt><trkpt lat="46.175825" lon="12.3593017"><ele>883.0</ele><time>2026-04-24T09:39:34.697Z</time></trkpt><trkpt lat="46.17592" lon="12.3593567"><ele>885.2</ele><time>2026-04-24T09:39:35.697Z</time></trkpt><trkpt lat="46.176015" lon="12.3593867"><ele>887.4</ele><time>2026-04-24T09:39:36.697Z</time></trkpt><trkpt lat="46.176115" lon="12.3593967"><ele>889.6000000000001</ele><time>2026-04-24T09:39:37.697Z</time></trkpt><trkpt lat="46.1762233" lon="12.3593933"><ele>891.8000000000001</ele><time>2026-04-24T09:39:38.697Z</time></trkpt><trkpt lat="46.1763333" lon="12.3593483"><ele>894.0</ele><time>2026-04-24T09:39:39.697Z</time></trkpt><trkpt lat="46.17644" lon="12.359255"><ele>895.5</ele><time>2026-04-24T09:39:40.697Z</time></trkpt><trkpt lat="46.176535" lon="12.3591383"><ele>897.0</ele><time>2026-04-24T09:39:41.697Z</time></trkpt><trkpt lat="46.17663" lon="12.359"><ele>898.5</ele><time>2026-04-24T09:39:42.697Z</time></trkpt><trkpt lat="46.176725" lon="12.3588683"><ele>900.0</ele><time>2026-04-24T09:39:43.697Z</time></trkpt><trkpt lat="46.1768117" lon="12.3587383"><ele>902.4</ele><time>2026-04-24T09:39:44.698Z</time></trkpt><trkpt lat="46.176875" lon="12.35863"><ele>904.8</ele><time>2026-04-24T09:39:45.697Z</time></trkpt><trkpt lat="46.1769117" lon="12.3585167"><ele>907.2</ele><time>2026-04-24T09:39:46.697Z</time></trkpt><trkpt lat="46.17692" lon="12.3583867"><ele>909.6</ele><time>2026-04-24T09:39:47.697Z</time></trkpt><trkpt lat="46.1768917" lon="12.3582467"><ele>912.0</ele><time>2026-04-24T09:39:48.697Z</time></trkpt><trkpt lat="46.1768433" lon="12.3581"><ele>913.6</ele><time>2026-04-24T09:39:49.698Z</time></trkpt><trkpt lat="46.1768" lon="12.3579533"><ele>915.2</ele><time>2026-04-24T09:39:50.697Z</time></trkpt><trkpt lat="46.1767683" lon="12.357805"><ele>916.8</ele><time>2026-04-24T09:39:51.697Z</time></trkpt><trkpt lat="46.1767467" lon="12.3576533"><ele>918.4</ele><time>2026-04-24T09:39:52.697Z</time></trkpt><trkpt lat="46.176735" lon="12.35748"><ele>920.0</ele><time>2026-04-24T09:39:53.697Z</time></trkpt><trkpt lat="46.176725" lon="12.357315"><ele>923.0</ele><time>2026-04-24T09:39:54.697Z</time></trkpt><trkpt lat="46.1767083" lon="12.357145"><ele>926.0</ele><time>2026-04-24T09:39:55.697Z</time></trkpt><trkpt lat="46.1766983" lon="12.3569767"><ele>929.0</ele><time>2026-04-24T09:39:56.697Z</time></trkpt><trkpt lat="46.1766883" lon="12.356805"><ele>932.0</ele><time>2026-04-24T09:39:57.697Z</time></trkpt><trkpt lat="46.1766767" lon="12.3566333"><ele>932.0</ele><time>2026-04-24T09:39:58.697Z</time></trkpt><trkpt lat="46.1766664" lon="12.356457"><ele>932.0</ele><time>2026-04-24T09:39:59.697Z</time></trkpt><trkpt lat="46.1766523" lon="12.3562839"><ele>932.0</ele><time>2026-04-24T09:40:00.697Z</time></trkpt><trkpt lat="46.1766381" lon="12.3561105"><ele>932.0</ele><time>2026-04-24T09:40:01.697Z</time></trkpt><trkpt lat="46.1766273" lon="12.3559298"><ele>933.8</ele><time>2026-04-24T09:40:02.697Z</time></trkpt><trkpt lat="46.1766189" lon="12.3557494"><ele>935.6</ele><time>2026-04-24T09:40:03.697Z</time></trkpt><trkpt lat="46.1766106" lon="12.3555761"><ele>937.3999999999999</ele><time>2026-04-24T09:40:04.697Z</time></trkpt><trkpt lat="46.176603" lon="12.3554207"><ele>939.1999999999999</ele><time>2026-04-24T09:40:05.697Z</time></trkpt><trkpt lat="46.1765961" lon="12.3552942"><ele>941.0</ele><time>2026-04-24T09:40:06.698Z</time></trkpt><trkpt lat="46.176592" lon="12.3551924"><ele>939.8333333333334</ele><time>2026-04-24T09:40:07.697Z</time></trkpt><trkpt lat="46.1765915" lon="12.3550448"><ele>938.6666666666667</ele><time>2026-04-24T09:40:09.697Z</time></trkpt><trkpt lat="46.1765542" lon="12.3549315"><ele>937.5</ele><time>2026-04-24T09:40:12.697Z</time></trkpt><trkpt lat="46.1764981" lon="12.3548123"><ele>936.3333333333333</ele><time>2026-04-24T09:40:14.697Z</time></trkpt><trkpt lat="46.1764754" lon="12.3547271"><ele>935.1666666666666</ele><time>2026-04-24T09:40:15.697Z</time></trkpt><trkpt lat="46.1764624" lon="12.3546183"><ele>934.0</ele><time>2026-04-24T09:40:16.698Z</time></trkpt><trkpt lat="46.1764548" lon="12.3544884"><ele>933.9999999999999</ele><time>2026-04-24T09:40:17.697Z</time></trkpt><trkpt lat="46.1764517" lon="12.3543517"><ele>934.0</ele><time>2026-04-24T09:40:18.697Z</time></trkpt><trkpt lat="46.1764534" lon="12.3542238"><ele>934.0</ele><time>2026-04-24T09:40:19.697Z</time></trkpt><trkpt lat="46.1764575" lon="12.3540981"><ele>934.0</ele><time>2026-04-24T09:40:20.698Z</time></trkpt><trkpt lat="46.1764647" lon="12.3539724"><ele>933.9999999999999</ele><time>2026-04-24T09:40:21.697Z</time></trkpt><trkpt lat="46.1764738" lon="12.3538532"><ele>934.0</ele><time>2026-04-24T09:40:22.697Z</time></trkpt><trkpt lat="46.1764796" lon="12.3537378"><ele>933.8333333333333</ele><time>2026-04-24T09:40:23.697Z</time></trkpt><trkpt lat="46.1764894" lon="12.3536323"><ele>933.6666666666666</ele><time>2026-04-24T09:40:24.697Z</time></trkpt><trkpt lat="46.1765042" lon="12.3535239"><ele>933.5</ele><time>2026-04-24T09:40:25.697Z</time></trkpt><trkpt lat="46.1765335" lon="12.3534046"><ele>933.3333333333333</ele><time>2026-04-24T09:40:26.697Z</time></trkpt><trkpt lat="46.1765713" lon="12.3532828"><ele>933.1666666666666</ele><time>2026-04-24T09:40:27.697Z</time></trkpt><trkpt lat="46.1766096" lon="12.3531803"><ele>933.0</ele><time>2026-04-24T09:40:28.697Z</time></trkpt><trkpt lat="46.1766503" lon="12.3530672"><ele>937.6666666666666</ele><time>2026-04-24T09:40:29.697Z</time></trkpt><trkpt lat="46.1766941" lon="12.3529505"><ele>942.3333333333333</ele><time>2026-04-24T09:40:30.697Z</time></trkpt><trkpt lat="46.176745" lon="12.3528273"><ele>947.0</ele><time>2026-04-24T09:40:31.698Z</time></trkpt><trkpt lat="46.1767921" lon="12.3527124"><ele>951.6666666666666</ele><time>2026-04-24T09:40:32.697Z</time></trkpt><trkpt lat="46.1768374" lon="12.3526137"><ele>956.3333333333333</ele><time>2026-04-24T09:40:33.697Z</time></trkpt><trkpt lat="46.1768747" lon="12.3525343"><ele>961.0</ele><time>2026-04-24T09:40:34.697Z</time></trkpt><trkpt lat="46.1769183" lon="12.3524551"><ele>960.9999999999999</ele><time>2026-04-24T09:40:35.697Z</time></trkpt><trkpt lat="46.17697" lon="12.3523816"><ele>961.0</ele><time>2026-04-24T09:40:36.697Z</time></trkpt><trkpt lat="46.1770289" lon="12.3523132"><ele>961.0</ele><time>2026-04-24T09:40:37.697Z</time></trkpt><trkpt lat="46.1770845" lon="12.3522501"><ele>961.0</ele><time>2026-04-24T09:40:38.697Z</time></trkpt><trkpt lat="46.1771899" lon="12.3521767"><ele>960.9999999999999</ele><time>2026-04-24T09:40:40.697Z</time></trkpt><trkpt lat="46.1772614" lon="12.3521375"><ele>961.0</ele><time>2026-04-24T09:40:41.697Z</time></trkpt><trkpt lat="46.1773341" lon="12.3520964"><ele>965.1999999999999</ele><time>2026-04-24T09:40:42.697Z</time></trkpt><trkpt lat="46.1774178" lon="12.3520497"><ele>969.3999999999999</ele><time>2026-04-24T09:40:43.698Z</time></trkpt><trkpt lat="46.1775091" lon="12.3520023"><ele>973.6</ele><time>2026-04-24T09:40:44.697Z</time></trkpt><trkpt lat="46.1776038" lon="12.3519573"><ele>977.8</ele><time>2026-04-24T09:40:45.697Z</time></trkpt><trkpt lat="46.1776869" lon="12.3519158"><ele>982.0</ele><time>2026-04-24T09:40:46.697Z</time></trkpt><trkpt lat="46.1777593" lon="12.351886"><ele>981.9999999999999</ele><time>2026-04-24T09:40:47.697Z</time></trkpt><trkpt lat="46.1778349" lon="12.3518565"><ele>982.0</ele><time>2026-04-24T09:40:48.697Z</time></trkpt><trkpt lat="46.1779125" lon="12.3518181"><ele>982.0</ele><time>2026-04-24T09:40:49.697Z</time></trkpt><trkpt lat="46.1779968" lon="12.3517858"><ele>982.0</ele><time>2026-04-24T09:40:50.698Z</time></trkpt><trkpt lat="46.1780686" lon="12.351764"><ele>981.9999999999999</ele><time>2026-04-24T09:40:51.697Z</time></trkpt><trkpt lat="46.1781597" lon="12.3517419"><ele>982.0</ele><time>2026-04-24T09:40:53.697Z</time></trkpt><trkpt lat="46.1782242" lon="12.3516958"><ele>985.2</ele><time>2026-04-24T09:40:55.697Z</time></trkpt><trkpt lat="46.1783221" lon="12.351644"><ele>988.4000000000001</ele><time>2026-04-24T09:40:57.697Z</time></trkpt><trkpt lat="46.1784348" lon="12.351602"><ele>991.5999999999999</ele><time>2026-04-24T09:40:59.697Z</time></trkpt><trkpt lat="46.1785466" lon="12.3515497"><ele>994.8</ele><time>2026-04-24T09:41:01.697Z</time></trkpt><trkpt lat="46.1786071" lon="12.351513"><ele>998.0</ele><time>2026-04-24T09:41:02.697Z</time></trkpt><trkpt lat="46.178669" lon="12.3514784"><ele>998.0</ele><time>2026-04-24T09:41:03.697Z</time></trkpt><trkpt lat="46.1787363" lon="12.351439"><ele>998.0</ele><time>2026-04-24T09:41:04.697Z</time></trkpt><trkpt lat="46.1788024" lon="12.351403"><ele>998.0</ele><time>2026-04-24T09:41:05.697Z</time></trkpt><trkpt lat="46.1789013" lon="12.351355"><ele>998.0</ele><time>2026-04-24T09:41:07.697Z</time></trkpt><trkpt lat="46.178265" lon="12.3516867"><ele>998.0000000000001</ele><time>2026-04-24T09:42:00.697Z</time></trkpt><trkpt lat="46.17832" lon="12.3517633"><ele>998.0</ele><time>2026-04-24T09:42:06.698Z</time></trkpt><trkpt lat="46.1784383" lon="12.35173"><ele>998.0</ele><time>2026-04-24T09:42:08.697Z</time></trkpt><trkpt lat="46.1785083" lon="12.351705"><ele>998.0</ele><time>2026-04-24T09:42:09.697Z</time></trkpt><trkpt lat="46.1785767" lon="12.35169"><ele>998.0000000000001</ele><time>2026-04-24T09:42:10.698Z</time></trkpt><trkpt lat="46.17865" lon="12.3516817"><ele>998.0</ele><time>2026-04-24T09:42:11.698Z</time></trkpt><trkpt lat="46.1787167" lon="12.35167"><ele>998.0</ele><time>2026-04-24T09:42:12.697Z</time></trkpt><trkpt lat="46.1788367" lon="12.351655"><ele>998.0</ele><time>2026-04-24T09:42:14.697Z</time></trkpt><trkpt lat="46.17892" lon="12.35165"><ele>998.0</ele><time>2026-04-24T09:42:16.697Z</time></trkpt><trkpt lat="46.1790767" lon="12.3516017"><ele>998.0</ele><time>2026-04-24T09:42:58.697Z</time></trkpt><trkpt lat="46.17914" lon="12.3515883"><ele>998.0</ele><time>2026-04-24T09:43:00.697Z</time></trkpt><trkpt lat="46.1792217" lon="12.35155"><ele>1001.5999999999999</ele><time>2026-04-24T09:43:02.696Z</time></trkpt><trkpt lat="46.1793117" lon="12.351495"><ele>1005.1999999999999</ele><time>2026-04-24T09:43:04.696Z</time></trkpt><trkpt lat="46.1793967" lon="12.3514467"><ele>1008.8</ele><time>2026-04-24T09:43:06.696Z</time></trkpt><trkpt lat="46.1794833" lon="12.3514"><ele>1012.4</ele><time>2026-04-24T09:43:08.696Z</time></trkpt><trkpt lat="46.17958" lon="12.3513767"><ele>1016.0</ele><time>2026-04-24T09:43:10.696Z</time></trkpt><trkpt lat="46.1796817" lon="12.3514"><ele>1016.0</ele><time>2026-04-24T09:43:12.696Z</time></trkpt><trkpt lat="46.1797967" lon="12.35146"><ele>1015.9999999999999</ele><time>2026-04-24T09:43:14.696Z</time></trkpt><trkpt lat="46.1798817" lon="12.3515133"><ele>1015.9999999999999</ele><time>2026-04-24T09:43:16.696Z</time></trkpt><trkpt lat="46.1799868" lon="12.351568"><ele>1016.0</ele><time>2026-04-24T09:43:18.696Z</time></trkpt><trkpt lat="46.1800841" lon="12.3516381"><ele>1016.0</ele><time>2026-04-24T09:43:20.696Z</time></trkpt><trkpt lat="46.1801776" lon="12.3517053"><ele>1020.8</ele><time>2026-04-24T09:43:22.696Z</time></trkpt><trkpt lat="46.1802806" lon="12.3517362"><ele>1025.6</ele><time>2026-04-24T09:43:24.696Z</time></trkpt><trkpt lat="46.1804145" lon="12.3517707"><ele>1030.4</ele><time>2026-04-24T09:43:26.696Z</time></trkpt><trkpt lat="46.1804934" lon="12.3517937"><ele>1035.2</ele><time>2026-04-24T09:43:27.696Z</time></trkpt><trkpt lat="46.1805709" lon="12.3518111"><ele>1040.0</ele><time>2026-04-24T09:43:28.696Z</time></trkpt><trkpt lat="46.1806476" lon="12.3518268"><ele>1044.0</ele><time>2026-04-24T09:43:29.696Z</time></trkpt><trkpt lat="46.180726" lon="12.3518389"><ele>1048.0</ele><time>2026-04-24T09:43:30.696Z</time></trkpt><trkpt lat="46.1808068" lon="12.3518495"><ele>1052.0</ele><time>2026-04-24T09:43:31.696Z</time></trkpt><trkpt lat="46.1808897" lon="12.3518562"><ele>1056.0</ele><time>2026-04-24T09:43:32.697Z</time></trkpt><trkpt lat="46.1809649" lon="12.35186"><ele>1060.0</ele><time>2026-04-24T09:43:33.696Z</time></trkpt><trkpt lat="46.1810759" lon="12.3518884"><ele>1064.0</ele><time>2026-04-24T09:43:35.696Z</time></trkpt><trkpt lat="46.1811569" lon="12.3519219"><ele>1064.0</ele><time>2026-04-24T09:43:37.696Z</time></trkpt><trkpt lat="46.1812314" lon="12.3519741"><ele>1064.0</ele><time>2026-04-24T09:43:39.696Z</time></trkpt><trkpt lat="46.1813173" lon="12.3520379"><ele>1064.0</ele><time>2026-04-24T09:43:41.696Z</time></trkpt><trkpt lat="46.181419" lon="12.3521087"><ele>1064.0</ele><time>2026-04-24T09:43:43.696Z</time></trkpt><trkpt lat="46.1814872" lon="12.3521441"><ele>1064.0</ele><time>2026-04-24T09:43:44.696Z</time></trkpt><trkpt lat="46.1815714" lon="12.3521874"><ele>1066.8</ele><time>2026-04-24T09:43:45.696Z</time></trkpt><trkpt lat="46.1816576" lon="12.3522332"><ele>1069.6000000000001</ele><time>2026-04-24T09:43:46.697Z</time></trkpt><trkpt lat="46.181746" lon="12.3522666"><ele>1072.4</ele><time>2026-04-24T09:43:47.697Z</time></trkpt><trkpt lat="46.1818554" lon="12.3522817"><ele>1075.2</ele><time>2026-04-24T09:43:49.696Z</time></trkpt><trkpt lat="46.1819544" lon="12.3522673"><ele>1078.0</ele><time>2026-04-24T09:43:51.696Z</time></trkpt><trkpt lat="46.1820883" lon="12.3522117"><ele>1080.0</ele><time>2026-04-24T09:44:03.696Z</time></trkpt><trkpt lat="46.1821633" lon="12.35217"><ele>1082.0</ele><time>2026-04-24T09:44:05.696Z</time></trkpt><trkpt lat="46.1822283" lon="12.3520667"><ele>1084.0</ele><time>2026-04-24T09:44:07.697Z</time></trkpt><trkpt lat="46.1822183" lon="12.3519033"><ele>1086.0</ele><time>2026-04-24T09:44:09.696Z</time></trkpt><trkpt lat="46.1821983" lon="12.351795"><ele>1088.0</ele><time>2026-04-24T09:44:10.696Z</time></trkpt><trkpt lat="46.182165" lon="12.3516817"><ele>1088.0</ele><time>2026-04-24T09:44:11.696Z</time></trkpt><trkpt lat="46.18214" lon="12.3515767"><ele>1088.0</ele><time>2026-04-24T09:44:12.696Z</time></trkpt><trkpt lat="46.18211" lon="12.3514733"><ele>1088.0</ele><time>2026-04-24T09:44:13.696Z</time></trkpt><trkpt lat="46.1820817" lon="12.351365"><ele>1088.0</ele><time>2026-04-24T09:44:14.696Z</time></trkpt><trkpt lat="46.1820567" lon="12.3512583"><ele>1088.0</ele><time>2026-04-24T09:44:15.696Z</time></trkpt><trkpt lat="46.1820117" lon="12.3511483"><ele>1088.0</ele><time>2026-04-24T09:44:16.696Z</time></trkpt><trkpt lat="46.1819817" lon="12.3510433"><ele>1090.6666666666667</ele><time>2026-04-24T09:44:17.696Z</time></trkpt><trkpt lat="46.1819583" lon="12.35094"><ele>1093.3333333333335</ele><time>2026-04-24T09:44:18.696Z</time></trkpt><trkpt lat="46.181925" lon="12.3507883"><ele>1096.0</ele><time>2026-04-24T09:44:20.696Z</time></trkpt><trkpt lat="46.1819383" lon="12.3506683"><ele>1098.6666666666667</ele><time>2026-04-24T09:44:22.696Z</time></trkpt><trkpt lat="46.18198" lon="12.3505367"><ele>1101.3333333333333</ele><time>2026-04-24T09:44:24.696Z</time></trkpt><trkpt lat="46.1820067" lon="12.35045"><ele>1104.0</ele><time>2026-04-24T09:44:25.696Z</time></trkpt><trkpt lat="46.1820517" lon="12.3503067"><ele>1106.2</ele><time>2026-04-24T09:44:27.697Z</time></trkpt><trkpt lat="46.1820483" lon="12.3501633"><ele>1108.4</ele><time>2026-04-24T09:44:29.696Z</time></trkpt><trkpt lat="46.1820317" lon="12.3500283"><ele>1110.6</ele><time>2026-04-24T09:44:31.697Z</time></trkpt><trkpt lat="46.1820117" lon="12.349845"><ele>1112.8</ele><time>2026-04-24T09:44:33.696Z</time></trkpt><trkpt lat="46.1820067" lon="12.3497433"><ele>1115.0</ele><time>2026-04-24T09:44:34.696Z</time></trkpt><trkpt lat="46.1820233" lon="12.3495733"><ele>1116.0</ele><time>2026-04-24T09:44:36.696Z</time></trkpt><trkpt lat="46.1820983" lon="12.349405"><ele>1116.0</ele><time>2026-04-24T09:44:38.696Z</time></trkpt><trkpt lat="46.1821383" lon="12.3493133"><ele>1116.0</ele><time>2026-04-24T09:44:39.696Z</time></trkpt><trkpt lat="46.1821767" lon="12.34923"><ele>1116.0</ele><time>2026-04-24T09:44:40.697Z</time></trkpt><trkpt lat="46.18221" lon="12.3491017"><ele>1116.0</ele><time>2026-04-24T09:44:42.696Z</time></trkpt></trkseg><trkseg><trkpt lat="46.1790117" lon="12.3516183"><ele>999.6666666666667</ele><time>2026-04-24T09:51:39.695Z</time></trkpt><trkpt lat="46.1790633" lon="12.3515367"><ele>1001.3333333333334</ele><time>2026-04-24T09:51:51.695Z</time></trkpt><trkpt lat="46.1791267" lon="12.3514333"><ele>1003.0</ele><time>2026-04-24T09:51:54.695Z</time></trkpt><trkpt lat="46.179185" lon="12.3513533"><ele>1004.6666666666667</ele><time>2026-04-24T09:51:56.695Z</time></trkpt><trkpt lat="46.17925" lon="12.3512617"><ele>1006.3333333333334</ele><time>2026-04-24T09:51:58.695Z</time></trkpt><trkpt lat="46.1793267" lon="12.3511817"><ele>1008.0</ele><time>2026-04-24T09:52:00.695Z</time></trkpt><trkpt lat="46.1794233" lon="12.3511"><ele>1008.0</ele><time>2026-04-24T09:52:02.695Z</time></trkpt><trkpt lat="46.1794883" lon="12.3510767"><ele>1008.0</ele><time>2026-04-24T09:52:04.695Z</time></trkpt><trkpt lat="46.17943" lon="12.3510233"><ele>1008.0</ele><time>2026-04-24T09:53:21.695Z</time></trkpt><trkpt lat="46.1793633" lon="12.3510783"><ele>1008.0</ele><time>2026-04-24T09:53:23.695Z</time></trkpt><trkpt lat="46.1793167" lon="12.351145"><ele>1008.0</ele><time>2026-04-24T09:53:25.695Z</time></trkpt><trkpt lat="46.1792633" lon="12.35122"><ele>1008.0</ele><time>2026-04-24T09:53:27.695Z</time></trkpt><trkpt lat="46.1791933" lon="12.3513283"><ele>1009.3333333333334</ele><time>2026-04-24T09:53:30.695Z</time></trkpt><trkpt lat="46.1791483" lon="12.3514167"><ele>1010.6666666666667</ele><time>2026-04-24T09:53:32.695Z</time></trkpt><trkpt lat="46.1791067" lon="12.3514917"><ele>1012.0</ele><time>2026-04-24T09:53:34.695Z</time></trkpt><trkpt lat="46.1790667" lon="12.3515667"><ele>1013.3333333333334</ele><time>2026-04-24T09:53:36.695Z</time></trkpt><trkpt lat="46.1789933" lon="12.351615"><ele>1014.6666666666667</ele><time>2026-04-24T09:53:38.695Z</time></trkpt><trkpt lat="46.17892" lon="12.351635"><ele>1016.0</ele><time>2026-04-24T09:53:40.696Z</time></trkpt><trkpt lat="46.1788267" lon="12.35165"><ele>1012.4</ele><time>2026-04-24T09:53:42.695Z</time></trkpt><trkpt lat="46.1787267" lon="12.3516683"><ele>1008.8</ele><time>2026-04-24T09:53:44.695Z</time></trkpt><trkpt lat="46.178621" lon="12.3516912"><ele>1005.1999999999999</ele><time>2026-04-24T09:53:47.739Z</time></trkpt><trkpt lat="46.1785226" lon="12.3516891"><ele>1001.5999999999999</ele><time>2026-04-24T09:53:49.741Z</time></trkpt><trkpt lat="46.178427" lon="12.3517038"><ele>998.0</ele><time>2026-04-24T09:53:51.779Z</time></trkpt><trkpt lat="46.178348" lon="12.3517251"><ele>998.0000000000001</ele><time>2026-04-24T09:53:53.744Z</time></trkpt><trkpt lat="46.1782749" lon="12.3517347"><ele>998.0</ele><time>2026-04-24T09:53:55.745Z</time></trkpt><trkpt lat="46.1783033" lon="12.3516467"><ele>998.0</ele><time>2026-04-24T09:54:12.695Z</time></trkpt><trkpt lat="46.1783733" lon="12.3516333"><ele>998.0</ele><time>2026-04-24T09:54:14.695Z</time></trkpt><trkpt lat="46.17846" lon="12.3516083"><ele>998.0000000000001</ele><time>2026-04-24T09:54:16.695Z</time></trkpt><trkpt lat="46.178575" lon="12.3515483"><ele>998.0</ele><time>2026-04-24T09:54:18.696Z</time></trkpt><trkpt lat="46.1786383" lon="12.3515033"><ele>998.0000000000001</ele><time>2026-04-24T09:54:19.695Z</time></trkpt><trkpt lat="46.178695" lon="12.3514583"><ele>998.0</ele><time>2026-04-24T09:54:20.696Z</time></trkpt><trkpt lat="46.1788117" lon="12.351385"><ele>998.0</ele><time>2026-04-24T09:54:22.695Z</time></trkpt><trkpt lat="46.1788717" lon="12.3513483"><ele>998.0</ele><time>2026-04-24T09:54:23.695Z</time></trkpt><trkpt lat="46.1789283" lon="12.351305"><ele>998.0000000000001</ele><time>2026-04-24T09:54:24.695Z</time></trkpt><trkpt lat="46.1790233" lon="12.351205"><ele>998.0</ele><time>2026-04-24T09:54:26.696Z</time></trkpt><trkpt lat="46.179095" lon="12.35107"><ele>997.8333333333334</ele><time>2026-04-24T09:54:28.695Z</time></trkpt><trkpt lat="46.179135" lon="12.3509267"><ele>997.6666666666667</ele><time>2026-04-24T09:54:30.695Z</time></trkpt><trkpt lat="46.1791633" lon="12.3508233"><ele>997.5</ele><time>2026-04-24T09:54:32.695Z</time></trkpt><trkpt lat="46.1792167" lon="12.3507383"><ele>997.3333333333333</ele><time>2026-04-24T09:54:34.695Z</time></trkpt><trkpt lat="46.1792967" lon="12.3506783"><ele>997.1666666666666</ele><time>2026-04-24T09:54:36.695Z</time></trkpt><trkpt lat="46.1793583" lon="12.3505933"><ele>997.0</ele><time>2026-04-24T09:54:38.695Z</time></trkpt><trkpt lat="46.1793633" lon="12.35042"><ele>997.0</ele><time>2026-04-24T09:54:40.695Z</time></trkpt><trkpt lat="46.1793717" lon="12.3502417"><ele>997.0</ele><time>2026-04-24T09:54:42.695Z</time></trkpt><trkpt lat="46.179375" lon="12.35013"><ele>997.0</ele><time>2026-04-24T09:54:43.696Z</time></trkpt><trkpt lat="46.1793833" lon="12.3500317"><ele>997.0</ele><time>2026-04-24T09:54:44.695Z</time></trkpt><trkpt lat="46.1793967" lon="12.3499417"><ele>997.0</ele><time>2026-04-24T09:54:45.695Z</time></trkpt><trkpt lat="46.1794233" lon="12.3497783"><ele>996.1666666666666</ele><time>2026-04-24T09:54:47.695Z</time></trkpt><trkpt lat="46.179445" lon="12.3496867"><ele>995.3333333333333</ele><time>2026-04-24T09:54:48.695Z</time></trkpt><trkpt lat="46.1794683" lon="12.34958"><ele>994.5</ele><time>2026-04-24T09:54:49.695Z</time></trkpt><trkpt lat="46.1795083" lon="12.3494433"><ele>993.6666666666667</ele><time>2026-04-24T09:54:50.695Z</time></trkpt><trkpt lat="46.17955" lon="12.3493033"><ele>992.8333333333334</ele><time>2026-04-24T09:54:51.695Z</time></trkpt><trkpt lat="46.1795833" lon="12.349185"><ele>992.0</ele><time>2026-04-24T09:54:52.695Z</time></trkpt><trkpt lat="46.1796133" lon="12.3490567"><ele>992.0</ele><time>2026-04-24T09:54:53.695Z</time></trkpt><trkpt lat="46.1796267" lon="12.3489383"><ele>992.0</ele><time>2026-04-24T09:54:54.695Z</time></trkpt><trkpt lat="46.1796333" lon="12.34881"><ele>992.0</ele><time>2026-04-24T09:54:55.695Z</time></trkpt><trkpt lat="46.1796383" lon="12.3486933"><ele>992.0</ele><time>2026-04-24T09:54:56.696Z</time></trkpt><trkpt lat="46.1795883" lon="12.3485067"><ele>992.0</ele><time>2026-04-24T09:54:58.695Z</time></trkpt><trkpt lat="46.1795517" lon="12.3484217"><ele>991.0</ele><time>2026-04-24T09:54:59.695Z</time></trkpt><trkpt lat="46.17951" lon="12.3483367"><ele>990.0</ele><time>2026-04-24T09:55:00.694Z</time></trkpt><trkpt lat="46.1794767" lon="12.3482417"><ele>989.0</ele><time>2026-04-24T09:55:01.694Z</time></trkpt><trkpt lat="46.17946" lon="12.3481433"><ele>988.0</ele><time>2026-04-24T09:55:02.694Z</time></trkpt><trkpt lat="46.17945" lon="12.348005"><ele>987.0</ele><time>2026-04-24T09:55:04.694Z</time></trkpt><trkpt lat="46.17945" lon="12.3477667"><ele>986.6666666666666</ele><time>2026-04-24T09:55:21.694Z</time></trkpt><trkpt lat="46.17943" lon="12.3476633"><ele>986.3333333333333</ele><time>2026-04-24T09:55:22.694Z</time></trkpt><trkpt lat="46.1794117" lon="12.3475433"><ele>986.0</ele><time>2026-04-24T09:55:23.695Z</time></trkpt><trkpt lat="46.1793933" lon="12.3474283"><ele>985.6666666666666</ele><time>2026-04-24T09:55:24.694Z</time></trkpt><trkpt lat="46.179375" lon="12.3473083"><ele>985.3333333333333</ele><time>2026-04-24T09:55:25.694Z</time></trkpt><trkpt lat="46.1793567" lon="12.3471983"><ele>985.0</ele><time>2026-04-24T09:55:26.694Z</time></trkpt><trkpt lat="46.1793317" lon="12.3471"><ele>984.3333333333333</ele><time>2026-04-24T09:55:27.694Z</time></trkpt><trkpt lat="46.1793183" lon="12.3470083"><ele>983.6666666666666</ele><time>2026-04-24T09:55:28.694Z</time></trkpt><trkpt lat="46.17931" lon="12.3469133"><ele>983.0</ele><time>2026-04-24T09:55:29.694Z</time></trkpt><trkpt lat="46.1793117" lon="12.3468133"><ele>982.3333333333333</ele><time>2026-04-24T09:55:30.694Z</time></trkpt><trkpt lat="46.1793017" lon="12.3466983"><ele>981.6666666666666</ele><time>2026-04-24T09:55:31.694Z</time></trkpt><trkpt lat="46.1792883" lon="12.3465717"><ele>981.0</ele><time>2026-04-24T09:55:32.694Z</time></trkpt><trkpt lat="46.1792583" lon="12.3464483"><ele>981.6666666666666</ele><time>2026-04-24T09:55:33.694Z</time></trkpt><trkpt lat="46.179225" lon="12.3463383"><ele>982.3333333333333</ele><time>2026-04-24T09:55:34.694Z</time></trkpt><trkpt lat="46.179205" lon="12.3462183"><ele>983.0</ele><time>2026-04-24T09:55:35.694Z</time></trkpt><trkpt lat="46.1791717" lon="12.3460983"><ele>983.6666666666666</ele><time>2026-04-24T09:55:36.694Z</time></trkpt><trkpt lat="46.1791317" lon="12.3459817"><ele>984.3333333333333</ele><time>2026-04-24T09:55:37.694Z</time></trkpt><trkpt lat="46.1790817" lon="12.3458967"><ele>985.0</ele><time>2026-04-24T09:55:38.694Z</time></trkpt><trkpt lat="46.179035" lon="12.3458233"><ele>979.4</ele><time>2026-04-24T09:55:39.695Z</time></trkpt><trkpt lat="46.1789767" lon="12.3457283"><ele>973.8</ele><time>2026-04-24T09:55:41.694Z</time></trkpt><trkpt lat="46.17897" lon="12.3456033"><ele>968.2</ele><time>2026-04-24T09:55:44.694Z</time></trkpt><trkpt lat="46.178995" lon="12.34549"><ele>962.6</ele><time>2026-04-24T09:55:46.695Z</time></trkpt><trkpt lat="46.1789933" lon="12.345355"><ele>957.0</ele><time>2026-04-24T09:55:48.694Z</time></trkpt><trkpt lat="46.1789683" lon="12.3452117"><ele>954.8</ele><time>2026-04-24T09:55:50.694Z</time></trkpt><trkpt lat="46.178925" lon="12.3450417"><ele>952.6</ele><time>2026-04-24T09:55:52.695Z</time></trkpt><trkpt lat="46.1788883" lon="12.344925"><ele>950.3999999999999</ele><time>2026-04-24T09:55:53.694Z</time></trkpt><trkpt lat="46.1788483" lon="12.344815"><ele>948.1999999999999</ele><time>2026-04-24T09:55:54.694Z</time></trkpt><trkpt lat="46.1788083" lon="12.3446867"><ele>946.0</ele><time>2026-04-24T09:55:55.694Z</time></trkpt><trkpt lat="46.17877" lon="12.3445667"><ele>944.5999999999999</ele><time>2026-04-24T09:55:56.694Z</time></trkpt><trkpt lat="46.178745" lon="12.3444567"><ele>943.1999999999999</ele><time>2026-04-24T09:55:57.694Z</time></trkpt><trkpt lat="46.17873" lon="12.344365"><ele>941.8000000000001</ele><time>2026-04-24T09:55:58.694Z</time></trkpt><trkpt lat="46.17873" lon="12.3441967"><ele>940.4000000000001</ele><time>2026-04-24T09:56:00.694Z</time></trkpt><trkpt lat="46.1787683" lon="12.3440267"><ele>939.0</ele><time>2026-04-24T09:56:02.695Z</time></trkpt><trkpt lat="46.178785" lon="12.34385"><ele>938.8333333333334</ele><time>2026-04-24T09:56:04.694Z</time></trkpt><trkpt lat="46.1787767" lon="12.3437433"><ele>938.6666666666667</ele><time>2026-04-24T09:56:05.694Z</time></trkpt><trkpt lat="46.1787683" lon="12.343645"><ele>938.5</ele><time>2026-04-24T09:56:06.694Z</time></trkpt><trkpt lat="46.1787617" lon="12.3435433"><ele>938.3333333333334</ele><time>2026-04-24T09:56:07.694Z</time></trkpt><trkpt lat="46.17876" lon="12.34345"><ele>938.1666666666667</ele><time>2026-04-24T09:56:08.695Z</time></trkpt><trkpt lat="46.178765" lon="12.3433533"><ele>938.0</ele><time>2026-04-24T09:56:09.694Z</time></trkpt><trkpt lat="46.178795" lon="12.3431817"><ele>939.8333333333334</ele><time>2026-04-24T09:56:11.694Z</time></trkpt><trkpt lat="46.17886" lon="12.3430283"><ele>941.6666666666667</ele><time>2026-04-24T09:56:13.694Z</time></trkpt><trkpt lat="46.1788867" lon="12.3429367"><ele>943.5</ele><time>2026-04-24T09:56:14.694Z</time></trkpt><trkpt lat="46.17894" lon="12.3427917"><ele>945.3333333333333</ele><time>2026-04-24T09:56:16.694Z</time></trkpt><trkpt lat="46.178975" lon="12.342715"><ele>947.1666666666666</ele><time>2026-04-24T09:56:17.694Z</time></trkpt><trkpt lat="46.1790233" lon="12.3426517"><ele>949.0</ele><time>2026-04-24T09:56:18.694Z</time></trkpt><trkpt lat="46.1790733" lon="12.3425767"><ele>948.9999999999999</ele><time>2026-04-24T09:56:19.694Z</time></trkpt><trkpt lat="46.1791467" lon="12.3425167"><ele>949.0</ele><time>2026-04-24T09:56:20.695Z</time></trkpt><trkpt lat="46.1792183" lon="12.34245"><ele>949.0</ele><time>2026-04-24T09:56:21.694Z</time></trkpt><trkpt lat="46.1792867" lon="12.3423833"><ele>949.0</ele><time>2026-04-24T09:56:22.694Z</time></trkpt><trkpt lat="46.17936" lon="12.3423133"><ele>948.9999999999999</ele><time>2026-04-24T09:56:23.694Z</time></trkpt><trkpt lat="46.1794203" lon="12.3422546"><ele>949.0</ele><time>2026-04-24T09:56:24.695Z</time></trkpt><trkpt lat="46.1794935" lon="12.3421068"><ele>945.1666666666666</ele><time>2026-04-24T09:56:26.695Z</time></trkpt><trkpt lat="46.1795229" lon="12.3420098"><ele>941.3333333333333</ele><time>2026-04-24T09:56:27.694Z</time></trkpt><trkpt lat="46.1795502" lon="12.3419127"><ele>937.5</ele><time>2026-04-24T09:56:28.694Z</time></trkpt><trkpt lat="46.1795736" lon="12.3418019"><ele>933.6666666666667</ele><time>2026-04-24T09:56:29.694Z</time></trkpt><trkpt lat="46.1795873" lon="12.341667"><ele>929.8333333333334</ele><time>2026-04-24T09:56:30.695Z</time></trkpt><trkpt lat="46.1795896" lon="12.3414995"><ele>926.0</ele><time>2026-04-24T09:56:31.694Z</time></trkpt><trkpt lat="46.1795869" lon="12.3413363"><ele>922.5999999999999</ele><time>2026-04-24T09:56:32.694Z</time></trkpt><trkpt lat="46.1795883" lon="12.3411972"><ele>919.1999999999999</ele><time>2026-04-24T09:56:33.694Z</time></trkpt><trkpt lat="46.1795942" lon="12.3410784"><ele>915.8000000000001</ele><time>2026-04-24T09:56:34.694Z</time></trkpt><trkpt lat="46.1796014" lon="12.3409817"><ele>912.4000000000001</ele><time>2026-04-24T09:56:35.694Z</time></trkpt><trkpt lat="46.1796188" lon="12.3408315"><ele>909.0</ele><time>2026-04-24T09:56:37.694Z</time></trkpt><trkpt lat="46.1797134" lon="12.3407292"><ele>909.0</ele><time>2026-04-24T09:56:39.695Z</time></trkpt><trkpt lat="46.1797792" lon="12.3406872"><ele>909.0</ele><time>2026-04-24T09:56:40.694Z</time></trkpt><trkpt lat="46.1798549" lon="12.3406508"><ele>909.0</ele><time>2026-04-24T09:56:41.694Z</time></trkpt><trkpt lat="46.1799397" lon="12.3406214"><ele>909.0</ele><time>2026-04-24T09:56:42.694Z</time></trkpt><trkpt lat="46.1800296" lon="12.3405836"><ele>909.0</ele><time>2026-04-24T09:56:43.695Z</time></trkpt><trkpt lat="46.1801104" lon="12.3405507"><ele>909.0</ele><time>2026-04-24T09:56:44.694Z</time></trkpt><trkpt lat="46.1801884" lon="12.3405205"><ele>909.6</ele><time>2026-04-24T09:56:45.694Z</time></trkpt><trkpt lat="46.1802627" lon="12.3404835"><ele>910.2</ele><time>2026-04-24T09:56:46.694Z</time></trkpt><trkpt lat="46.1803668" lon="12.3403827"><ele>910.8000000000001</ele><time>2026-04-24T09:56:48.694Z</time></trkpt><trkpt lat="46.1804302" lon="12.3402659"><ele>911.4000000000001</ele><time>2026-04-24T09:56:50.695Z</time></trkpt><trkpt lat="46.1803693" lon="12.3402031"><ele>912.0</ele><time>2026-04-24T09:56:53.695Z</time></trkpt><trkpt lat="46.1802909" lon="12.3402206"><ele>912.0</ele><time>2026-04-24T09:56:55.694Z</time></trkpt><trkpt lat="46.1802097" lon="12.3402221"><ele>912.0</ele><time>2026-04-24T09:56:56.694Z</time></trkpt><trkpt lat="46.1801218" lon="12.3402142"><ele>912.0</ele><time>2026-04-24T09:56:57.694Z</time></trkpt><trkpt lat="46.1800343" lon="12.3401975"><ele>912.0</ele><time>2026-04-24T09:56:58.694Z</time></trkpt><trkpt lat="46.1799595" lon="12.3401736"><ele>912.0</ele><time>2026-04-24T09:56:59.694Z</time></trkpt><trkpt lat="46.1798844" lon="12.3401344"><ele>912.0</ele><time>2026-04-24T09:57:00.694Z</time></trkpt><trkpt lat="46.1798172" lon="12.3400919"><ele>890.0</ele><time>2026-04-24T09:57:01.694Z</time></trkpt><trkpt lat="46.1797584" lon="12.3400529"><ele>890.0</ele><time>2026-04-24T09:57:02.694Z</time></trkpt><trkpt lat="46.1796673" lon="12.3400197"><ele>890.0</ele><time>2026-04-24T09:57:04.694Z</time></trkpt><trkpt lat="46.1796105" lon="12.3400594"><ele>890.0</ele><time>2026-04-24T09:57:06.694Z</time></trkpt></trkseg><trkseg><trkpt lat="46.1800067" lon="12.3391233"><ele>893.0000000000001</ele><time>2026-04-24T10:14:23.69Z</time></trkpt><trkpt lat="46.1800067" lon="12.3390317"><ele>893.0</ele><time>2026-04-24T10:14:29.691Z</time></trkpt><trkpt lat="46.18003" lon="12.3389467"><ele>893.0</ele><time>2026-04-24T10:14:48.69Z</time></trkpt><trkpt lat="46.1800667" lon="12.338865"><ele>893.0</ele><time>2026-04-24T10:14:51.69Z</time></trkpt><trkpt lat="46.18006" lon="12.3386817"><ele>893.0000000000001</ele><time>2026-04-24T10:15:04.69Z</time></trkpt><trkpt lat="46.179995" lon="12.338645"><ele>893.0</ele><time>2026-04-24T10:15:08.69Z</time></trkpt><trkpt lat="46.17993" lon="12.33863"><ele>873.0</ele><time>2026-04-24T10:15:10.69Z</time></trkpt><trkpt lat="46.179855" lon="12.3386333"><ele>873.0</ele><time>2026-04-24T10:15:12.689Z</time></trkpt><trkpt lat="46.1797683" lon="12.3386417"><ele>860.0</ele><time>2026-04-24T10:15:14.689Z</time></trkpt><trkpt lat="46.17968" lon="12.3386267"><ele>860.0</ele><time>2026-04-24T10:15:16.689Z</time></trkpt><trkpt lat="46.17959" lon="12.3386333"><ele>860.0</ele><time>2026-04-24T10:15:19.689Z</time></trkpt></trkseg></trk></gpx>